Terminal Aerodrome Forecast
Issued by NWS

Home | Current Version | Previous Version | Graphics & Text | Print | Product List | Glossary On
Versions: 1 2 3 4 5 6 7 8 9 10 11 12 13 14
000
FTUS43 KUNR 261733
TAFGCC
TAF
KGCC 261733Z 2618/2718 31010G20KT P6SM SCT040
      TEMPO 2619/2623 -TSRA BKN040CB
     FM270300 VRB05KT P6SM FEW040=

USA.gov is the U.S. government's official web portal to all federal, state and local government web resources and services.